createdAt,value
2023-03-07T00:00:58.255Z,13.27
2023-03-07T00:03:26.801Z,12.10
2023-03-07T00:06:03.505Z,12.57
2023-03-07T00:08:32.017Z,11.50
2023-03-07T00:11:02.964Z,12.13
2023-03-07T00:13:32.361Z,10.93
2023-03-07T00:16:04.464Z,11.80
2023-03-07T00:18:33.481Z,11.47
2023-03-07T00:21:05.718Z,11.47
2023-03-07T00:23:34.352Z,11.20
2023-03-07T00:26:04.069Z,9.87
2023-03-07T00:28:32.516Z,11.10
2023-03-07T00:31:01.983Z,12.13
2023-03-07T00:33:30.691Z,11.23
2023-03-07T00:35:59.867Z,10.87
2023-03-07T00:38:30.141Z,11.23
2023-03-07T00:40:59.512Z,11.07
2023-03-07T00:43:28.218Z,9.80
2023-03-07T00:45:56.947Z,11.30
2023-03-07T00:48:25.820Z,10.57
2023-03-07T00:50:54.401Z,11.43
2023-03-07T00:53:22.945Z,10.40
2023-03-07T00:56:00.070Z,10.23
2023-03-07T00:58:31.684Z,10.67
2023-03-07T01:01:00.548Z,9.67
2023-03-07T01:03:29.442Z,9.10
2023-03-07T01:05:58.272Z,10.10
2023-03-07T01:08:26.713Z,10.17
2023-03-07T01:10:59.833Z,10.27
2023-03-07T01:13:30.172Z,10.30
2023-03-07T01:16:08.050Z,11.20
2023-03-07T01:18:36.501Z,11.83
2023-03-07T01:21:12.015Z,10.90
2023-03-07T01:23:40.533Z,10.77
2023-03-07T01:26:09.204Z,10.63
2023-03-07T01:28:39.013Z,10.47
2023-03-07T01:31:07.413Z,10.13
2023-03-07T01:33:35.869Z,9.38
2023-03-07T01:36:04.425Z,10.10
2023-03-07T01:38:34.226Z,9.60
2023-03-07T01:41:02.695Z,8.57
2023-03-07T01:43:32.316Z,7.27
2023-03-07T01:46:21.514Z,7.77
2023-03-07T01:48:53.511Z,8.13
2023-03-07T01:51:22.376Z,6.63
2023-03-07T01:53:51.398Z,7.53
2023-03-07T01:56:19.998Z,6.53
2023-03-07T01:58:48.496Z,5.95
2023-03-07T02:01:17.224Z,6.53
2023-03-07T02:03:48.364Z,6.40
2023-03-07T02:06:18.426Z,6.37
2023-03-07T02:08:47.479Z,5.90
2023-03-07T02:11:16.038Z,5.60
2023-03-07T02:13:44.485Z,5.43
2023-03-07T02:16:13.042Z,5.30
2023-03-07T02:18:44.415Z,5.10
2023-03-07T02:21:17.031Z,5.03
2023-03-07T02:23:50.995Z,4.50
2023-03-07T02:26:22.450Z,4.90
2023-03-07T02:28:52.714Z,5.30
2023-03-07T02:31:21.143Z,5.73
2023-03-07T02:33:49.797Z,5.63
2023-03-07T02:36:20.808Z,5.28
2023-03-07T02:38:50.975Z,5.13
2023-03-07T02:41:20.766Z,4.97
2023-03-07T02:43:49.237Z,4.43
2023-03-07T02:46:19.929Z,5.07
2023-03-07T02:48:48.432Z,4.80
2023-03-07T02:51:17.061Z,4.70
2023-03-07T02:53:45.993Z,4.53
2023-03-07T02:56:15.070Z,4.63
2023-03-07T02:58:43.538Z,4.60
2023-03-07T03:01:12.445Z,4.67
2023-03-07T03:03:43.287Z,4.00
2023-03-07T03:06:11.722Z,4.50
2023-03-07T03:08:40.148Z,4.13
2023-03-07T03:11:08.560Z,5.47
2023-03-07T03:13:38.938Z,4.40
2023-03-07T03:16:07.772Z,4.40
2023-03-07T03:18:36.243Z,4.60
2023-03-07T03:21:10.523Z,4.73
2023-03-07T03:23:39.101Z,4.80
2023-03-07T03:26:08.349Z,4.90
2023-03-07T03:28:37.129Z,4.63
2023-03-07T03:31:06.723Z,5.27
2023-03-07T03:33:35.213Z,5.10
2023-03-07T03:36:08.405Z,5.70
2023-03-07T03:38:39.153Z,5.00
2023-03-07T03:41:08.136Z,4.93
2023-03-07T03:43:36.590Z,4.22
2023-03-07T03:46:05.356Z,4.90
2023-03-07T03:48:33.809Z,4.90
2023-03-07T03:51:03.028Z,5.10
2023-03-07T03:53:31.817Z,4.73
2023-03-07T03:56:05.161Z,4.80
2023-03-07T03:58:33.628Z,5.27
2023-03-07T04:01:05.712Z,5.40
2023-03-07T04:03:34.470Z,5.40
2023-03-07T04:06:03.430Z,5.07
2023-03-07T04:08:32.089Z,5.10
2023-03-07T04:11:00.707Z,5.70
2023-03-07T04:13:30.550Z,5.83
2023-03-07T04:15:58.956Z,5.87
2023-03-07T04:18:27.419Z,6.50
2023-03-07T04:20:56.056Z,8.23
2023-03-07T04:23:25.035Z,9.03
2023-03-07T04:25:55.637Z,8.60
2023-03-07T04:28:24.737Z,6.47
2023-03-07T04:30:54.537Z,7.43
2023-03-07T04:33:22.999Z,8.40
2023-03-07T04:35:51.442Z,8.77
2023-03-07T04:38:19.893Z,10.57
2023-03-07T04:40:48.293Z,11.03
2023-03-07T04:43:16.791Z,11.10
2023-03-07T04:45:45.266Z,11.17
2023-03-07T04:48:15.136Z,11.30
2023-03-07T04:50:43.636Z,11.07
2023-03-07T04:53:12.039Z,10.93
2023-03-07T04:55:40.476Z,11.57
2023-03-07T04:58:12.813Z,11.67
2023-03-07T05:00:41.724Z,11.57
2023-03-07T05:03:10.399Z,12.00
2023-03-07T05:05:40.309Z,11.23
2023-03-07T05:08:09.050Z,11.57
2023-03-07T05:10:38.113Z,11.57
2023-03-07T05:13:06.531Z,12.67
2023-03-07T05:15:35.614Z,12.20
2023-03-07T05:18:04.146Z,13.07
2023-03-07T05:20:33.799Z,11.93
2023-03-07T05:23:03.731Z,12.27
2023-03-07T05:25:32.192Z,12.00
2023-03-07T05:28:00.743Z,13.80
2023-03-07T05:30:29.308Z,13.13
2023-03-07T05:32:57.919Z,13.33
2023-03-07T05:35:26.593Z,12.80
2023-03-07T05:37:55.097Z,12.93
2023-03-07T05:40:24.929Z,12.37
2023-03-07T05:42:53.357Z,14.03
2023-03-07T05:45:22.081Z,14.00
2023-03-07T05:47:50.511Z,13.20
2023-03-07T05:50:21.039Z,14.40
2023-03-07T05:52:49.499Z,14.67
2023-03-07T05:55:18.513Z,12.37
2023-03-07T05:57:48.445Z,13.07
2023-03-07T06:00:17.213Z,13.60
2023-03-07T06:02:45.651Z,12.50
2023-03-07T06:05:14.316Z,11.63
2023-03-07T06:07:42.735Z,12.37
2023-03-07T06:10:12.053Z,11.60
2023-03-07T06:12:40.468Z,12.53
2023-03-07T06:15:11.267Z,11.50
2023-03-07T06:17:40.758Z,12.43
2023-03-07T06:20:09.804Z,11.97
2023-03-07T06:22:38.903Z,12.07
2023-03-07T06:25:07.900Z,12.03
2023-03-07T06:27:36.361Z,12.17
2023-03-07T06:30:05.637Z,12.03
2023-03-07T06:32:35.522Z,11.67
2023-03-07T06:35:04.020Z,12.13
2023-03-07T06:37:32.499Z,12.70
2023-03-07T06:40:00.940Z,12.40
2023-03-07T06:42:29.365Z,14.53
2023-03-07T06:44:57.795Z,12.07
2023-03-07T06:47:26.246Z,12.50
2023-03-07T06:49:56.229Z,12.90
2023-03-07T06:52:24.900Z,12.93
2023-03-07T06:54:53.400Z,14.13
2023-03-07T06:57:21.871Z,13.43
2023-03-07T06:59:50.332Z,13.00
2023-03-07T07:02:18.875Z,13.37
2023-03-07T07:04:47.357Z,13.63
2023-03-07T07:07:17.158Z,13.03
2023-03-07T07:09:45.581Z,14.30
2023-03-07T07:12:14.009Z,12.33
2023-03-07T07:14:42.463Z,12.43
2023-03-07T07:17:10.978Z,11.33
2023-03-07T07:19:39.479Z,11.80
2023-03-07T07:22:08.697Z,11.80
2023-03-07T07:24:38.600Z,11.33
2023-03-07T07:27:07.377Z,12.40
2023-03-07T07:29:35.796Z,11.67
2023-03-07T07:32:04.750Z,12.80
2023-03-07T07:34:33.369Z,12.97
2023-03-07T07:37:01.814Z,11.83
2023-03-07T07:39:30.265Z,13.27
2023-03-07T07:42:00.111Z,12.27
2023-03-07T07:44:31.379Z,13.17
2023-03-07T07:46:59.861Z,13.27
2023-03-07T07:49:28.415Z,12.60
2023-03-07T07:51:57.248Z,13.30
2023-03-07T07:54:25.723Z,13.43
2023-03-07T07:56:54.262Z,13.17
2023-03-07T07:59:24.052Z,12.47
2023-03-07T08:01:52.553Z,13.40
2023-03-07T08:04:21.334Z,13.77
2023-03-07T08:06:49.769Z,13.40
2023-03-07T08:09:18.182Z,14.37
2023-03-07T08:11:46.703Z,14.63
2023-03-07T08:14:15.132Z,14.00
2023-03-07T08:16:44.987Z,13.23
2023-03-07T08:19:13.407Z,13.70
2023-03-07T08:21:41.854Z,12.80
2023-03-07T08:24:10.450Z,12.53
2023-03-07T08:26:39.114Z,12.47
2023-03-07T08:29:07.657Z,12.10
2023-03-07T08:31:36.100Z,12.97
2023-03-07T08:34:05.949Z,11.80
2023-03-07T08:36:34.414Z,12.50
2023-03-07T08:39:02.864Z,12.50
2023-03-07T08:41:31.338Z,12.50
2023-03-07T08:43:59.768Z,12.83
2023-03-07T08:46:28.201Z,12.27
2023-03-07T08:48:56.699Z,11.30
2023-03-07T08:51:26.539Z,11.47
2023-03-07T08:53:54.973Z,11.07
2023-03-07T08:56:23.418Z,8.27
2023-03-07T08:58:54.024Z,6.03
2023-03-07T09:01:22.572Z,5.33
2023-03-07T09:03:51.074Z,4.93
2023-03-07T09:06:20.471Z,4.63
2023-03-07T09:08:50.369Z,4.20
2023-03-07T09:11:19.336Z,3.80
2023-03-07T09:13:52.295Z,3.77
2023-03-07T09:16:21.712Z,3.73
2023-03-07T09:18:50.197Z,3.43
2023-03-07T09:21:18.691Z,3.60
2023-03-07T09:23:47.161Z,3.57
2023-03-07T09:26:17.019Z,3.43
2023-03-07T09:28:45.450Z,3.60
2023-03-07T09:31:15.427Z,3.07
2023-03-07T09:33:46.563Z,3.40
2023-03-07T09:36:15.764Z,3.37
2023-03-07T09:38:44.207Z,4.20
2023-03-07T09:41:23.845Z,3.60
2023-03-07T09:43:56.991Z,4.57
2023-03-07T09:46:31.473Z,5.13
2023-03-07T09:49:05.716Z,5.03
2023-03-07T09:51:38.221Z,4.20
2023-03-07T09:54:10.797Z,3.53
2023-03-07T09:56:44.037Z,3.47
2023-03-07T09:59:22.745Z,2.73
2023-03-07T10:01:53.462Z,5.00
2023-03-07T10:04:24.546Z,3.93
2023-03-07T10:06:58.277Z,4.10
2023-03-07T10:09:27.309Z,3.60
2023-03-07T10:12:11.769Z,3.07
2023-03-07T10:14:49.401Z,3.23
2023-03-07T10:17:21.472Z,3.17
2023-03-07T10:19:51.752Z,4.63
2023-03-07T10:22:21.725Z,4.10
2023-03-07T10:25:08.227Z,5.13
2023-03-07T10:27:38.182Z,3.20
2023-03-07T10:30:13.302Z,3.20
2023-03-07T10:32:45.195Z,3.40
2023-03-07T10:35:21.224Z,3.77
2023-03-07T10:37:54.028Z,3.30
2023-03-07T10:40:26.561Z,3.63
2023-03-07T10:42:57.032Z,3.63
2023-03-07T10:45:25.658Z,3.60
2023-03-07T10:47:54.087Z,4.10
2023-03-07T10:50:26.181Z,3.83
2023-03-07T10:52:55.878Z,4.10
2023-03-07T10:55:34.536Z,4.20
2023-03-07T10:58:16.088Z,5.03
2023-03-07T11:00:45.585Z,5.40
2023-03-07T11:03:28.356Z,4.30
2023-03-07T11:05:56.895Z,4.00
2023-03-07T11:08:32.453Z,5.50
2023-03-07T11:11:01.952Z,5.70
2023-03-07T11:13:32.266Z,4.23
2023-03-07T11:16:18.282Z,3.50
2023-03-07T11:18:46.864Z,4.90
2023-03-07T11:21:29.505Z,6.40
2023-03-07T11:24:01.878Z,4.23
2023-03-07T11:26:33.138Z,4.80
2023-03-07T11:29:10.784Z,5.03
2023-03-07T11:31:44.634Z,5.33
2023-03-07T11:34:23.060Z,5.00
2023-03-07T11:36:56.124Z,6.33
2023-03-07T11:39:31.844Z,6.40
2023-03-07T11:42:03.960Z,4.50
2023-03-07T11:44:36.614Z,3.60
2023-03-07T11:47:20.306Z,3.53
2023-03-07T11:49:57.705Z,3.70
2023-03-07T11:52:38.235Z,2.47
2023-03-07T11:55:13.076Z,3.27
2023-03-07T11:57:48.615Z,2.80
2023-03-07T12:00:25.312Z,3.28
2023-03-07T12:03:02.386Z,4.03
2023-03-07T12:05:42.290Z,3.95
2023-03-07T12:08:22.899Z,5.00
2023-03-07T12:10:56.177Z,5.23
2023-03-07T12:13:33.033Z,3.17
2023-03-07T12:16:07.611Z,4.03
2023-03-07T12:18:48.850Z,3.30
2023-03-07T12:21:24.243Z,3.80
2023-03-07T12:23:54.768Z,4.17
2023-03-07T12:26:25.465Z,4.17
2023-03-07T12:28:55.642Z,6.03
2023-03-07T12:31:28.682Z,4.45
2023-03-07T12:34:01.790Z,4.95
2023-03-07T12:36:35.165Z,3.30
2023-03-07T12:39:07.996Z,3.10
2023-03-07T12:41:48.355Z,3.20
2023-03-07T12:44:21.878Z,4.60
2023-03-07T12:46:56.732Z,5.80
2023-03-07T12:49:38.012Z,3.67
2023-03-07T12:52:16.080Z,3.23
2023-03-07T12:54:46.340Z,3.80
2023-03-07T12:57:16.970Z,3.83
2023-03-07T12:59:46.103Z,4.43
2023-03-07T13:02:18.568Z,5.63
2023-03-07T13:04:46.971Z,4.00
2023-03-07T13:07:17.873Z,4.20
2023-03-07T13:09:47.318Z,4.50
2023-03-07T13:12:31.210Z,4.60
2023-03-07T13:15:00.250Z,4.70
2023-03-07T13:17:47.265Z,4.50
2023-03-07T13:20:31.931Z,5.30
2023-03-07T13:23:14.538Z,6.10
2023-03-07T13:25:57.257Z,4.47
2023-03-07T13:28:39.561Z,3.50
2023-03-07T13:31:30.406Z,3.33
2023-03-07T13:34:18.912Z,3.73
2023-03-07T13:36:47.383Z,3.20
2023-03-07T13:39:30.800Z,3.73
2023-03-07T13:42:00.672Z,3.63
2023-03-07T13:44:30.682Z,2.90
2023-03-07T13:47:05.071Z,3.40
2023-03-07T13:49:37.580Z,2.90
2023-03-07T13:52:23.837Z,2.80
2023-03-07T13:54:52.818Z,2.80
2023-03-07T13:57:24.385Z,2.53
2023-03-07T13:59:54.698Z,2.80
2023-03-07T14:02:24.275Z,2.83
2023-03-07T14:04:57.785Z,3.10
2023-03-07T14:07:28.210Z,2.53
2023-03-07T14:09:58.302Z,3.10
2023-03-07T14:12:34.300Z,3.33
2023-03-07T14:15:09.352Z,3.10
2023-03-07T14:17:53.683Z,2.80
2023-03-07T14:20:27.840Z,2.70
2023-03-07T14:23:05.228Z,2.47
2023-03-07T14:25:34.051Z,2.60
2023-03-07T14:28:05.635Z,3.00
2023-03-07T14:30:34.875Z,2.67
2023-03-07T14:33:03.564Z,2.77
2023-03-07T14:35:49.736Z,2.60
2023-03-07T14:38:21.125Z,3.70
2023-03-07T14:41:04.570Z,3.77
2023-03-07T14:43:43.898Z,3.87
2023-03-07T14:46:15.471Z,3.47
2023-03-07T14:48:54.588Z,2.83
2023-03-07T14:51:24.586Z,3.30
2023-03-07T14:53:53.197Z,3.80
2023-03-07T14:56:23.490Z,3.60
2023-03-07T14:58:54.824Z,3.27
2023-03-07T15:01:23.352Z,3.53
2023-03-07T15:03:52.333Z,3.20
2023-03-07T15:06:22.378Z,3.40
2023-03-07T15:08:52.244Z,3.40
2023-03-07T15:11:25.679Z,4.03
2023-03-07T15:13:57.184Z,4.27
2023-03-07T15:16:27.023Z,3.77
2023-03-07T15:18:57.871Z,3.83
2023-03-07T15:21:27.046Z,3.67
2023-03-07T15:23:56.493Z,3.60
2023-03-07T15:26:26.506Z,3.97
2023-03-07T15:29:01.688Z,3.73
2023-03-07T15:31:33.477Z,4.20
2023-03-07T15:34:12.258Z,4.23
2023-03-07T15:36:40.731Z,3.97
2023-03-07T15:39:25.104Z,4.20
2023-03-07T15:42:00.630Z,4.60
2023-03-07T15:44:30.709Z,4.97
2023-03-07T15:47:00.732Z,4.70
2023-03-07T15:49:32.549Z,5.63
2023-03-07T15:52:01.692Z,4.77
2023-03-07T15:54:40.637Z,5.10
2023-03-07T15:57:15.998Z,4.80
2023-03-07T15:59:49.455Z,5.43
2023-03-07T16:02:36.453Z,5.73
2023-03-07T16:05:05.798Z,5.70
2023-03-07T16:07:34.312Z,5.67
2023-03-07T16:10:02.775Z,6.37
2023-03-07T16:12:31.268Z,7.97
2023-03-07T16:15:03.041Z,8.43
2023-03-07T16:17:32.769Z,6.33
2023-03-07T16:20:01.285Z,6.80
2023-03-07T16:22:30.861Z,7.10
2023-03-07T16:24:59.455Z,7.30
2023-03-07T16:27:27.887Z,7.37
2023-03-07T16:29:56.550Z,8.07
2023-03-07T16:32:26.358Z,8.17
2023-03-07T16:34:55.156Z,7.30
2023-03-07T16:37:23.570Z,5.30
2023-03-07T16:39:52.020Z,3.37
2023-03-07T16:42:21.434Z,3.53
2023-03-07T16:44:50.472Z,2.93
2023-03-07T16:47:19.567Z,3.50
2023-03-07T16:49:50.952Z,4.40
2023-03-07T16:52:19.523Z,4.30
2023-03-07T16:54:48.389Z,4.13
2023-03-07T16:57:18.174Z,4.57
2023-03-07T16:59:47.976Z,3.97
2023-03-07T17:02:17.611Z,3.77
2023-03-07T17:04:46.100Z,3.40
2023-03-07T17:07:19.525Z,2.93
2023-03-07T17:09:48.118Z,3.17
2023-03-07T17:12:16.658Z,2.70
2023-03-07T17:14:45.407Z,2.20
2023-03-07T17:17:18.349Z,2.23
2023-03-07T17:19:48.646Z,3.03
2023-03-07T17:22:18.818Z,3.23
2023-03-07T17:24:50.069Z,3.50
2023-03-07T17:27:18.802Z,3.40
2023-03-07T17:29:49.949Z,3.60
2023-03-07T17:32:18.709Z,2.90
2023-03-07T17:34:47.192Z,3.07
2023-03-07T17:37:15.674Z,3.00
2023-03-07T17:39:45.677Z,3.17
2023-03-07T17:42:15.699Z,3.57
2023-03-07T17:44:44.125Z,3.83
2023-03-07T17:47:12.695Z,3.80
2023-03-07T17:49:41.129Z,4.00
2023-03-07T17:52:09.747Z,4.20
2023-03-07T17:54:38.953Z,4.63
2023-03-07T17:57:08.212Z,5.03
2023-03-07T17:59:38.530Z,5.03
2023-03-07T18:02:07.053Z,5.83
2023-03-07T18:04:35.506Z,6.00
2023-03-07T18:07:04.678Z,6.07
2023-03-07T18:09:33.253Z,6.10
2023-03-07T18:12:01.727Z,6.10
2023-03-07T18:14:30.526Z,6.50
2023-03-07T18:17:00.354Z,5.77
2023-03-07T18:19:28.799Z,7.30
2023-03-07T18:21:57.270Z,6.87
2023-03-07T18:24:27.370Z,7.63
2023-03-07T18:26:56.284Z,7.37
2023-03-07T18:29:24.965Z,6.73
2023-03-07T18:31:53.393Z,7.33
2023-03-07T18:34:24.833Z,7.93
2023-03-07T18:36:54.266Z,8.60
2023-03-07T18:39:23.195Z,8.53
2023-03-07T18:41:52.064Z,8.53
2023-03-07T18:44:20.618Z,7.67
2023-03-07T18:46:49.423Z,8.53
2023-03-07T18:49:17.950Z,8.37
2023-03-07T18:51:48.550Z,9.27
2023-03-07T18:54:17.602Z,9.30
2023-03-07T18:56:47.417Z,9.33
2023-03-07T18:59:16.101Z,8.53
2023-03-07T19:01:44.700Z,9.30
2023-03-07T19:04:13.348Z,8.90
2023-03-07T19:06:45.090Z,8.47
2023-03-07T19:09:16.326Z,9.63
2023-03-07T19:11:45.569Z,8.80
2023-03-07T19:14:14.078Z,8.00
2023-03-07T19:16:42.776Z,8.50
2023-03-07T19:19:11.293Z,8.60
2023-03-07T19:21:39.740Z,8.23
2023-03-07T19:24:10.231Z,8.43
2023-03-07T19:26:41.079Z,8.83
2023-03-07T19:29:11.106Z,7.50
2023-03-07T19:31:40.909Z,8.13
2023-03-07T19:34:09.391Z,7.50
2023-03-07T19:36:38.106Z,7.23
2023-03-07T19:39:08.858Z,7.97
2023-03-07T19:41:39.665Z,6.97
2023-03-07T19:44:12.151Z,7.57
2023-03-07T19:46:43.096Z,7.20
2023-03-07T19:49:11.501Z,7.80
2023-03-07T19:51:39.978Z,7.00
2023-03-07T19:54:09.178Z,6.90
2023-03-07T19:56:38.484Z,6.90
2023-03-07T19:59:08.549Z,6.30
2023-03-07T20:01:38.907Z,7.20
2023-03-07T20:04:07.806Z,6.50
2023-03-07T20:06:36.377Z,7.00
2023-03-07T20:09:04.983Z,6.97
2023-03-07T20:11:34.037Z,6.73
2023-03-07T20:14:04.659Z,6.50
2023-03-07T20:16:33.674Z,7.17
2023-03-07T20:19:04.218Z,7.80
2023-03-07T20:21:33.067Z,7.87
2023-03-07T20:24:01.802Z,7.67
2023-03-07T20:26:32.312Z,7.60
2023-03-07T20:29:01.247Z,7.20
2023-03-07T20:31:29.940Z,7.30
2023-03-07T20:33:59.577Z,6.97
2023-03-07T20:36:30.005Z,6.90
2023-03-07T20:38:59.680Z,6.50
2023-03-07T20:41:29.082Z,6.87
2023-03-07T20:43:59.453Z,6.73
2023-03-07T20:46:28.000Z,6.23
2023-03-07T20:48:56.625Z,5.57
2023-03-07T20:51:27.032Z,6.03
2023-03-07T20:53:57.922Z,6.87
2023-03-07T20:56:27.008Z,6.60
2023-03-07T20:58:55.687Z,6.40
2023-03-07T21:01:24.745Z,6.50
2023-03-07T21:03:54.078Z,6.13
2023-03-07T21:06:22.613Z,6.70
2023-03-07T21:08:51.074Z,7.23
2023-03-07T21:11:21.679Z,6.93
2023-03-07T21:13:50.773Z,6.90
2023-03-07T21:16:20.418Z,6.47
2023-03-07T21:18:49.228Z,6.40
2023-03-07T21:21:18.792Z,6.70
2023-03-07T21:23:47.719Z,6.80
2023-03-07T21:26:16.937Z,7.00
2023-03-07T21:28:46.798Z,7.17
2023-03-07T21:31:17.898Z,7.47
2023-03-07T21:33:47.329Z,8.03
2023-03-07T21:36:16.680Z,6.90
2023-03-07T21:38:45.985Z,8.03
2023-03-07T21:41:14.812Z,6.67
2023-03-07T21:43:43.257Z,6.77
2023-03-07T21:46:14.142Z,6.67
2023-03-07T21:48:42.616Z,7.50
2023-03-07T21:51:11.543Z,6.37
2023-03-07T21:53:39.974Z,6.80
2023-03-07T21:56:09.989Z,6.93
2023-03-07T21:58:39.269Z,7.60
2023-03-07T22:01:12.762Z,7.77
2023-03-07T22:03:42.887Z,7.73
2023-03-07T22:06:12.053Z,8.10
2023-03-07T22:08:40.925Z,8.53
2023-03-07T22:11:10.355Z,8.27
2023-03-07T22:13:39.568Z,8.13
2023-03-07T22:16:09.114Z,8.43
2023-03-07T22:18:37.755Z,8.27
2023-03-07T22:21:11.639Z,9.20
2023-03-07T22:23:40.108Z,8.33
2023-03-07T22:26:09.803Z,9.27
2023-03-07T22:28:38.378Z,8.80
2023-03-07T22:31:07.555Z,8.50
2023-03-07T22:33:36.400Z,8.73
2023-03-07T22:36:05.768Z,8.87
2023-03-07T22:38:36.545Z,8.63
2023-03-07T22:41:05.968Z,8.67
2023-03-07T22:43:34.855Z,9.43
2023-03-07T22:46:03.414Z,9.37
2023-03-07T22:48:31.925Z,9.70
2023-03-07T22:51:00.493Z,9.10
2023-03-07T22:53:30.968Z,9.20
2023-03-07T22:56:01.241Z,8.37
2023-03-07T22:58:30.177Z,9.73
2023-03-07T23:00:58.655Z,9.37
2023-03-07T23:03:27.172Z,10.33
2023-03-07T23:06:02.101Z,9.50
2023-03-07T23:08:30.566Z,10.57
2023-03-07T23:11:03.717Z,9.40
2023-03-07T23:13:32.215Z,9.83
2023-03-07T23:16:00.682Z,10.10
2023-03-07T23:18:29.129Z,10.50
2023-03-07T23:20:57.771Z,10.57
2023-03-07T23:23:26.464Z,10.53
2023-03-07T23:25:54.869Z,9.67
2023-03-07T23:28:24.704Z,10.50
2023-03-07T23:30:53.470Z,10.20
2023-03-07T23:33:21.996Z,11.17
2023-03-07T23:35:50.535Z,9.97
2023-03-07T23:38:18.974Z,10.53
2023-03-07T23:40:47.385Z,10.83
2023-03-07T23:43:16.162Z,10.37
2023-03-07T23:45:45.994Z,11.53
2023-03-07T23:48:14.416Z,10.07
2023-03-07T23:50:42.819Z,11.70
2023-03-07T23:53:11.270Z,10.73
2023-03-07T23:55:42.252Z,10.50
2023-03-07T23:58:11.270Z,10.20
